sensor_id;sensor_type;location;lat;lon;timestamp;noise_LAeq;noise_LA_min;noise_LA_max;noise_LA01;noise_LA95
67398;Laerm;57728;50.448;18.824;2023-12-20T00:00:11;34.55;33.03;44.53;;
67398;Laerm;57728;50.448;18.824;2023-12-20T00:02:15;35.61;33.06;53.41;;
67398;Laerm;57728;50.448;18.824;2023-12-20T00:04:17;37.52;33.17;58.15;;
67398;Laerm;57728;50.448;18.824;2023-12-20T00:06:19;34.44;32.94;45.76;;
67398;Laerm;57728;50.448;18.824;2023-12-20T00:08:20;34.44;32.98;44.07;;
67398;Laerm;57728;50.448;18.824;2023-12-20T00:10:21;34.43;33.09;47.64;;
67398;Laerm;57728;50.448;18.824;2023-12-20T00:12:23;34.63;32.99;51.55;;
67398;Laerm;57728;50.448;18.824;2023-12-20T00:14:24;34.40;33.06;49.67;;
67398;Laerm;57728;50.448;18.824;2023-12-20T00:16:26;34.58;32.97;50.40;;
67398;Laerm;57728;50.448;18.824;2023-12-20T00:18:28;34.18;33.02;40.86;;
67398;Laerm;57728;50.448;18.824;2023-12-20T00:20:30;35.87;32.89;55.53;;
67398;Laerm;57728;50.448;18.824;2023-12-20T00:22:31;34.63;32.80;51.96;;
67398;Laerm;57728;50.448;18.824;2023-12-20T00:24:35;34.99;32.84;50.40;;
67398;Laerm;57728;50.448;18.824;2023-12-20T00:26:37;34.28;32.99;46.37;;
67398;Laerm;57728;50.448;18.824;2023-12-20T00:28:38;34.13;32.83;43.99;;
67398;Laerm;57728;50.448;18.824;2023-12-20T00:30:40;34.17;32.95;40.46;;
67398;Laerm;57728;50.448;18.824;2023-12-20T00:32:42;34.19;33.00;39.13;;
67398;Laerm;57728;50.448;18.824;2023-12-20T00:34:47;35.55;32.86;65.23;;
67398;Laerm;57728;50.448;18.824;2023-12-20T00:36:49;34.14;32.98;43.15;;
67398;Laerm;57728;50.448;18.824;2023-12-20T00:38:52;34.16;32.97;42.74;;
67398;Laerm;57728;50.448;18.824;2023-12-20T00:40:53;34.18;33.15;45.86;;
67398;Laerm;57728;50.448;18.824;2023-12-20T00:42:55;34.29;33.07;44.59;;
67398;Laerm;57728;50.448;18.824;2023-12-20T00:44:56;34.39;33.22;43.92;;
67398;Laerm;57728;50.448;18.824;2023-12-20T00:46:58;34.42;33.06;44.85;;
67398;Laerm;57728;50.448;18.824;2023-12-20T00:49:00;35.30;33.01;62.86;;
67398;Laerm;57728;50.448;18.824;2023-12-20T00:51:02;36.11;33.19;65.69;;
67398;Laerm;57728;50.448;18.824;2023-12-20T00:53:04;35.08;33.00;61.76;;
67398;Laerm;57728;50.448;18.824;2023-12-20T00:55:08;35.23;32.91;62.20;;
67398;Laerm;57728;50.448;18.824;2023-12-20T00:57:09;34.37;33.15;50.67;;
67398;Laerm;57728;50.448;18.824;2023-12-20T00:59:10;34.38;33.04;53.63;;
67398;Laerm;57728;50.448;18.824;2023-12-20T01:01:12;34.43;33.03;49.83;;
67398;Laerm;57728;50.448;18.824;2023-12-20T01:03:14;34.43;33.22;46.87;;
67398;Laerm;57728;50.448;18.824;2023-12-20T01:05:16;34.26;33.07;38.70;;
67398;Laerm;57728;50.448;18.824;2023-12-20T01:07:19;34.87;33.06;61.71;;
67398;Laerm;57728;50.448;18.824;2023-12-20T01:09:20;34.24;33.00;47.86;;
67398;Laerm;57728;50.448;18.824;2023-12-20T01:11:24;34.24;32.99;46.38;;
67398;Laerm;57728;50.448;18.824;2023-12-20T01:13:26;35.24;32.96;63.53;;
67398;Laerm;57728;50.448;18.824;2023-12-20T01:15:27;34.17;32.96;39.73;;
67398;Laerm;57728;50.448;18.824;2023-12-20T01:17:28;34.27;32.99;50.36;;
67398;Laerm;57728;50.448;18.824;2023-12-20T01:19:30;34.23;33.03;45.90;;
67398;Laerm;57728;50.448;18.824;2023-12-20T01:21:31;34.21;33.17;41.75;;
67398;Laerm;57728;50.448;18.824;2023-12-20T01:23:33;34.28;33.10;37.79;;
67398;Laerm;57728;50.448;18.824;2023-12-20T01:25:35;34.70;33.39;42.33;;
67398;Laerm;57728;50.448;18.824;2023-12-20T01:27:36;34.83;33.43;47.38;;
67398;Laerm;57728;50.448;18.824;2023-12-20T01:29:37;34.95;33.39;50.61;;
67398;Laerm;57728;50.448;18.824;2023-12-20T01:31:40;35.93;33.40;62.51;;
67398;Laerm;57728;50.448;18.824;2023-12-20T01:33:41;34.83;33.23;56.03;;
67398;Laerm;57728;50.448;18.824;2023-12-20T01:35:42;35.46;33.19;62.74;;
67398;Laerm;57728;50.448;18.824;2023-12-20T01:37:45;34.32;33.07;54.01;;
67398;Laerm;57728;50.448;18.824;2023-12-20T01:39:46;34.31;32.95;52.67;;
67398;Laerm;57728;50.448;18.824;2023-12-20T01:41:47;34.42;32.83;55.51;;
67398;Laerm;57728;50.448;18.824;2023-12-20T01:43:49;34.81;32.94;59.70;;
67398;Laerm;57728;50.448;18.824;2023-12-20T01:45:52;34.17;33.08;44.73;;
67398;Laerm;57728;50.448;18.824;2023-12-20T01:47:56;34.14;33.16;37.91;;
67398;Laerm;57728;50.448;18.824;2023-12-20T01:49:59;34.30;33.10;55.06;;
67398;Laerm;57728;50.448;18.824;2023-12-20T01:52:00;34.19;33.02;47.65;;
67398;Laerm;57728;50.448;18.824;2023-12-20T01:54:02;34.21;33.04;45.06;;
67398;Laerm;57728;50.448;18.824;2023-12-20T01:56:05;34.28;33.06;47.86;;
67398;Laerm;57728;50.448;18.824;2023-12-20T01:58:10;34.28;33.04;50.77;;
67398;Laerm;57728;50.448;18.824;2023-12-20T02:00:14;34.23;33.05;45.24;;
67398;Laerm;57728;50.448;18.824;2023-12-20T02:02:27;34.26;32.91;47.77;;
67398;Laerm;57728;50.448;18.824;2023-12-20T02:04:29;34.71;33.10;59.09;;
67398;Laerm;57728;50.448;18.824;2023-12-20T02:06:33;34.40;32.96;53.19;;
67398;Laerm;57728;50.448;18.824;2023-12-20T02:08:36;34.46;33.21;54.73;;
67398;Laerm;57728;50.448;18.824;2023-12-20T02:10:37;34.36;33.16;37.76;;
67398;Laerm;57728;50.448;18.824;2023-12-20T02:12:39;34.62;33.07;53.84;;
67398;Laerm;57728;50.448;18.824;2023-12-20T02:14:41;34.90;33.36;53.93;;
67398;Laerm;57728;50.448;18.824;2023-12-20T02:16:43;34.85;33.27;53.53;;
67398;Laerm;57728;50.448;18.824;2023-12-20T02:18:45;34.53;33.25;50.34;;
67398;Laerm;57728;50.448;18.824;2023-12-20T02:20:46;34.49;33.16;53.10;;
67398;Laerm;57728;50.448;18.824;2023-12-20T02:22:49;34.39;33.25;37.07;;
67398;Laerm;57728;50.448;18.824;2023-12-20T02:24:50;34.45;33.33;41.77;;
67398;Laerm;57728;50.448;18.824;2023-12-20T02:26:51;34.68;33.25;51.23;;
67398;Laerm;57728;50.448;18.824;2023-12-20T02:28:56;35.51;33.69;60.58;;
67398;Laerm;57728;50.448;18.824;2023-12-20T02:30:58;35.12;33.60;52.56;;
67398;Laerm;57728;50.448;18.824;2023-12-20T02:33:08;35.56;33.57;51.78;;
67398;Laerm;57728;50.448;18.824;2023-12-20T02:35:13;36.42;33.97;53.86;;
67398;Laerm;57728;50.448;18.824;2023-12-20T02:37:14;37.62;34.72;61.99;;
67398;Laerm;57728;50.448;18.824;2023-12-20T02:39:16;37.83;34.45;55.42;;
67398;Laerm;57728;50.448;18.824;2023-12-20T02:41:18;38.31;34.76;62.86;;
67398;Laerm;57728;50.448;18.824;2023-12-20T02:43:19;39.36;34.21;66.27;;
67398;Laerm;57728;50.448;18.824;2023-12-20T02:45:20;37.36;34.04;62.19;;
67398;Laerm;57728;50.448;18.824;2023-12-20T02:47:22;37.46;33.81;63.77;;
67398;Laerm;57728;50.448;18.824;2023-12-20T02:49:23;37.08;33.94;64.38;;
67398;Laerm;57728;50.448;18.824;2023-12-20T02:51:25;36.08;33.73;56.42;;
67398;Laerm;57728;50.448;18.824;2023-12-20T02:53:27;36.64;33.75;59.28;;
67398;Laerm;57728;50.448;18.824;2023-12-20T02:55:28;37.57;34.20;63.63;;
67398;Laerm;57728;50.448;18.824;2023-12-20T02:57:29;37.57;34.41;63.64;;
67398;Laerm;57728;50.448;18.824;2023-12-20T02:59:34;38.19;34.20;64.12;;
67398;Laerm;57728;50.448;18.824;2023-12-20T03:01:35;37.84;34.84;59.41;;
67398;Laerm;57728;50.448;18.824;2023-12-20T03:03:42;38.22;34.50;66.94;;
67398;Laerm;57728;50.448;18.824;2023-12-20T03:05:45;37.25;34.43;57.90;;
67398;Laerm;57728;50.448;18.824;2023-12-20T03:07:47;36.57;34.11;54.49;;
67398;Laerm;57728;50.448;18.824;2023-12-20T03:09:48;37.33;34.18;60.86;;
67398;Laerm;57728;50.448;18.824;2023-12-20T03:11:50;37.71;34.48;64.38;;
67398;Laerm;57728;50.448;18.824;2023-12-20T03:13:51;36.60;34.19;55.45;;
67398;Laerm;57728;50.448;18.824;2023-12-20T03:15:52;36.55;33.66;50.86;;
67398;Laerm;57728;50.448;18.824;2023-12-20T03:17:57;36.99;34.20;63.92;;
67398;Laerm;57728;50.448;18.824;2023-12-20T03:20:00;36.51;34.54;52.70;;
67398;Laerm;57728;50.448;18.824;2023-12-20T03:22:01;36.73;34.41;51.94;;
67398;Laerm;57728;50.448;18.824;2023-12-20T03:24:03;36.62;34.24;53.83;;
67398;Laerm;57728;50.448;18.824;2023-12-20T03:26:08;36.72;34.41;51.60;;
67398;Laerm;57728;50.448;18.824;2023-12-20T03:28:09;37.40;34.51;61.24;;
67398;Laerm;57728;50.448;18.824;2023-12-20T03:30:11;36.42;34.07;44.13;;
67398;Laerm;57728;50.448;18.824;2023-12-20T03:32:13;38.45;34.33;66.06;;
67398;Laerm;57728;50.448;18.824;2023-12-20T03:34:14;37.38;34.31;59.82;;
67398;Laerm;57728;50.448;18.824;2023-12-20T03:36:16;37.28;34.58;58.39;;
67398;Laerm;57728;50.448;18.824;2023-12-20T03:38:17;38.10;34.79;64.88;;
67398;Laerm;57728;50.448;18.824;2023-12-20T03:40:18;37.35;34.51;59.45;;
67398;Laerm;57728;50.448;18.824;2023-12-20T03:42:20;36.95;34.55;55.19;;
67398;Laerm;57728;50.448;18.824;2023-12-20T03:44:21;37.07;34.18;60.51;;
67398;Laerm;57728;50.448;18.824;2023-12-20T03:46:23;36.57;34.00;54.23;;
67398;Laerm;57728;50.448;18.824;2023-12-20T03:48:25;36.52;34.24;57.18;;
67398;Laerm;57728;50.448;18.824;2023-12-20T03:50:26;36.59;34.40;54.02;;
67398;Laerm;57728;50.448;18.824;2023-12-20T03:52:27;36.21;34.39;53.31;;
67398;Laerm;57728;50.448;18.824;2023-12-20T03:54:30;36.73;34.44;54.54;;
67398;Laerm;57728;50.448;18.824;2023-12-20T03:56:31;36.84;34.52;57.17;;
67398;Laerm;57728;50.448;18.824;2023-12-20T03:58:32;37.25;34.58;58.94;;
67398;Laerm;57728;50.448;18.824;2023-12-20T04:00:34;36.70;34.32;52.57;;
67398;Laerm;57728;50.448;18.824;2023-12-20T04:02:35;36.96;34.65;55.89;;
67398;Laerm;57728;50.448;18.824;2023-12-20T04:04:36;37.14;34.45;54.41;;
67398;Laerm;57728;50.448;18.824;2023-12-20T04:06:38;36.83;34.52;55.20;;
67398;Laerm;57728;50.448;18.824;2023-12-20T04:08:39;37.03;34.49;52.33;;
67398;Laerm;57728;50.448;18.824;2023-12-20T04:10:41;36.81;34.50;56.26;;
67398;Laerm;57728;50.448;18.824;2023-12-20T04:12:43;37.28;34.69;54.38;;
67398;Laerm;57728;50.448;18.824;2023-12-20T04:14:44;37.59;34.97;52.15;;
67398;Laerm;57728;50.448;18.824;2023-12-20T04:16:45;37.26;34.87;51.28;;
67398;Laerm;57728;50.448;18.824;2023-12-20T04:18:47;37.07;34.91;52.37;;
67398;Laerm;57728;50.448;18.824;2023-12-20T04:20:48;37.22;35.02;50.81;;
67398;Laerm;57728;50.448;18.824;2023-12-20T04:22:50;37.35;34.88;55.02;;
67398;Laerm;57728;50.448;18.824;2023-12-20T04:24:52;37.43;34.56;60.47;;
67398;Laerm;57728;50.448;18.824;2023-12-20T04:26:53;37.21;34.85;45.03;;
67398;Laerm;57728;50.448;18.824;2023-12-20T04:28:55;37.61;34.89;62.93;;
67398;Laerm;57728;50.448;18.824;2023-12-20T04:30:57;37.32;34.46;60.84;;
67398;Laerm;57728;50.448;18.824;2023-12-20T04:32:58;36.77;34.59;52.71;;
67398;Laerm;57728;50.448;18.824;2023-12-20T04:34:59;36.75;34.30;50.21;;
67398;Laerm;57728;50.448;18.824;2023-12-20T04:37:01;37.00;34.71;54.64;;
67398;Laerm;57728;50.448;18.824;2023-12-20T04:39:02;36.80;34.51;50.40;;
67398;Laerm;57728;50.448;18.824;2023-12-20T04:41:03;36.50;34.67;46.20;;
67398;Laerm;57728;50.448;18.824;2023-12-20T04:43:05;38.79;34.51;57.32;;
67398;Laerm;57728;50.448;18.824;2023-12-20T04:45:07;36.94;34.63;55.66;;
67398;Laerm;57728;50.448;18.824;2023-12-20T04:47:08;37.19;34.79;59.68;;
67398;Laerm;57728;50.448;18.824;2023-12-20T04:49:10;36.88;34.38;50.34;;
67398;Laerm;57728;50.448;18.824;2023-12-20T04:51:11;38.72;34.23;69.46;;
67398;Laerm;57728;50.448;18.824;2023-12-20T04:53:13;36.84;34.64;53.94;;
67398;Laerm;57728;50.448;18.824;2023-12-20T04:55:15;37.01;34.59;53.52;;
67398;Laerm;57728;50.448;18.824;2023-12-20T04:57:16;37.05;34.50;58.41;;
67398;Laerm;57728;50.448;18.824;2023-12-20T04:59:17;36.77;34.63;52.97;;
67398;Laerm;57728;50.448;18.824;2023-12-20T05:01:19;36.81;34.62;51.72;;
67398;Laerm;57728;50.448;18.824;2023-12-20T05:03:21;36.72;34.64;52.54;;
67398;Laerm;57728;50.448;18.824;2023-12-20T05:05:22;36.66;34.61;50.30;;
67398;Laerm;57728;50.448;18.824;2023-12-20T05:07:25;37.13;34.91;48.36;;
67398;Laerm;57728;50.448;18.824;2023-12-20T05:09:26;36.85;34.69;44.73;;
67398;Laerm;57728;50.448;18.824;2023-12-20T05:11:27;36.90;34.39;49.09;;
67398;Laerm;57728;50.448;18.824;2023-12-20T05:13:29;37.03;34.90;50.83;;
67398;Laerm;57728;50.448;18.824;2023-12-20T05:15:30;38.09;34.73;55.26;;
67398;Laerm;57728;50.448;18.824;2023-12-20T05:17:31;38.00;34.66;66.91;;
67398;Laerm;57728;50.448;18.824;2023-12-20T05:19:33;37.08;34.77;51.31;;
67398;Laerm;57728;50.448;18.824;2023-12-20T05:21:37;37.36;34.38;63.71;;
67398;Laerm;57728;50.448;18.824;2023-12-20T05:23:39;38.26;34.87;66.86;;
67398;Laerm;57728;50.448;18.824;2023-12-20T05:25:41;37.40;34.67;58.76;;
67398;Laerm;57728;50.448;18.824;2023-12-20T05:27:42;38.19;34.63;61.65;;
67398;Laerm;57728;50.448;18.824;2023-12-20T05:29:43;37.50;34.98;56.54;;
67398;Laerm;57728;50.448;18.824;2023-12-20T05:31:45;37.00;34.62;53.82;;
67398;Laerm;57728;50.448;18.824;2023-12-20T05:33:46;38.11;34.86;65.89;;
67398;Laerm;57728;50.448;18.824;2023-12-20T05:35:47;37.40;34.90;53.05;;
67398;Laerm;57728;50.448;18.824;2023-12-20T05:37:49;37.64;34.92;60.38;;
67398;Laerm;57728;50.448;18.824;2023-12-20T05:39:51;37.38;35.13;56.24;;
67398;Laerm;57728;50.448;18.824;2023-12-20T05:41:52;37.92;35.53;48.17;;
67398;Laerm;57728;50.448;18.824;2023-12-20T05:43:54;38.51;35.07;62.30;;
67398;Laerm;57728;50.448;18.824;2023-12-20T05:45:55;37.95;35.34;55.08;;
67398;Laerm;57728;50.448;18.824;2023-12-20T05:47:56;37.64;34.86;56.07;;
67398;Laerm;57728;50.448;18.824;2023-12-20T05:49:58;37.11;34.59;57.10;;
67398;Laerm;57728;50.448;18.824;2023-12-20T05:52:00;37.14;34.59;54.60;;
67398;Laerm;57728;50.448;18.824;2023-12-20T05:54:02;37.56;34.79;57.51;;
67398;Laerm;57728;50.448;18.824;2023-12-20T05:56:04;37.89;35.21;52.90;;
67398;Laerm;57728;50.448;18.824;2023-12-20T05:58:06;38.08;35.28;57.36;;
67398;Laerm;57728;50.448;18.824;2023-12-20T06:00:08;38.20;35.57;45.74;;
67398;Laerm;57728;50.448;18.824;2023-12-20T06:02:16;38.53;35.31;60.14;;
67398;Laerm;57728;50.448;18.824;2023-12-20T06:04:18;38.15;35.56;54.18;;
67398;Laerm;57728;50.448;18.824;2023-12-20T06:06:19;38.54;35.61;59.79;;
67398;Laerm;57728;50.448;18.824;2023-12-20T06:08:22;38.85;35.78;57.34;;
67398;Laerm;57728;50.448;18.824;2023-12-20T06:10:23;38.39;35.67;53.19;;
67398;Laerm;57728;50.448;18.824;2023-12-20T06:12:25;39.00;35.43;54.98;;
67398;Laerm;57728;50.448;18.824;2023-12-20T06:14:28;38.59;35.32;59.51;;
67398;Laerm;57728;50.448;18.824;2023-12-20T06:16:31;38.04;35.37;52.80;;
67398;Laerm;57728;50.448;18.824;2023-12-20T06:18:33;38.16;35.35;55.52;;
67398;Laerm;57728;50.448;18.824;2023-12-20T06:20:35;38.16;35.56;50.82;;
67398;Laerm;57728;50.448;18.824;2023-12-20T06:22:37;38.25;35.10;57.18;;
67398;Laerm;57728;50.448;18.824;2023-12-20T06:24:39;38.96;35.30;55.60;;
67398;Laerm;57728;50.448;18.824;2023-12-20T06:26:41;38.59;35.48;56.81;;
67398;Laerm;57728;50.448;18.824;2023-12-20T06:28:42;38.61;35.40;65.33;;
67398;Laerm;57728;50.448;18.824;2023-12-20T06:30:43;38.59;35.52;62.34;;
67398;Laerm;57728;50.448;18.824;2023-12-20T06:32:48;38.29;35.40;55.71;;
67398;Laerm;57728;50.448;18.824;2023-12-20T06:34:49;38.70;35.38;54.61;;
67398;Laerm;57728;50.448;18.824;2023-12-20T06:36:50;39.18;35.69;58.65;;
67398;Laerm;57728;50.448;18.824;2023-12-20T06:38:53;38.74;35.96;53.83;;
67398;Laerm;57728;50.448;18.824;2023-12-20T06:40:54;39.21;36.24;51.55;;
67398;Laerm;57728;50.448;18.824;2023-12-20T06:42:55;40.47;36.03;61.34;;
67398;Laerm;57728;50.448;18.824;2023-12-20T06:44:57;39.61;35.76;53.50;;
67398;Laerm;57728;50.448;18.824;2023-12-20T06:46:58;39.91;36.64;52.55;;
67398;Laerm;57728;50.448;18.824;2023-12-20T06:48:59;39.54;36.04;61.98;;
67398;Laerm;57728;50.448;18.824;2023-12-20T06:51:02;39.00;35.93;57.16;;
67398;Laerm;57728;50.448;18.824;2023-12-20T06:53:03;39.14;35.89;51.70;;
67398;Laerm;57728;50.448;18.824;2023-12-20T06:55:08;40.01;36.22;62.50;;
67398;Laerm;57728;50.448;18.824;2023-12-20T06:57:10;39.66;35.82;59.34;;
67398;Laerm;57728;50.448;18.824;2023-12-20T06:59:11;39.71;35.87;53.81;;
67398;Laerm;57728;50.448;18.824;2023-12-20T07:01:13;40.67;35.80;61.22;;
67398;Laerm;57728;50.448;18.824;2023-12-20T07:03:15;39.07;35.87;51.35;;
67398;Laerm;57728;50.448;18.824;2023-12-20T07:05:17;39.51;35.59;53.79;;
67398;Laerm;57728;50.448;18.824;2023-12-20T07:07:20;38.85;35.54;53.49;;
67398;Laerm;57728;50.448;18.824;2023-12-20T07:09:23;39.26;35.68;55.69;;
67398;Laerm;57728;50.448;18.824;2023-12-20T07:11:24;38.47;35.30;55.26;;
67398;Laerm;57728;50.448;18.824;2023-12-20T07:13:25;38.20;35.43;50.07;;
67398;Laerm;57728;50.448;18.824;2023-12-20T07:15:27;38.47;35.38;51.10;;
67398;Laerm;57728;50.448;18.824;2023-12-20T07:17:30;38.56;35.37;52.70;;
67398;Laerm;57728;50.448;18.824;2023-12-20T07:19:31;38.94;35.35;61.58;;
67398;Laerm;57728;50.448;18.824;2023-12-20T07:21:34;38.53;35.34;59.03;;
67398;Laerm;57728;50.448;18.824;2023-12-20T07:23:35;38.84;35.52;62.52;;
67398;Laerm;57728;50.448;18.824;2023-12-20T07:25:36;39.00;35.51;59.84;;
67398;Laerm;57728;50.448;18.824;2023-12-20T07:27:38;39.66;35.87;63.06;;
67398;Laerm;57728;50.448;18.824;2023-12-20T07:29:39;38.90;35.81;53.48;;
67398;Laerm;57728;50.448;18.824;2023-12-20T07:31:41;39.65;35.67;58.97;;
67398;Laerm;57728;50.448;18.824;2023-12-20T07:33:43;39.44;35.53;59.31;;
67398;Laerm;57728;50.448;18.824;2023-12-20T07:35:44;39.69;35.96;55.18;;
67398;Laerm;57728;50.448;18.824;2023-12-20T07:37:46;40.14;36.04;64.10;;
67398;Laerm;57728;50.448;18.824;2023-12-20T07:39:48;40.08;35.38;60.71;;
67398;Laerm;57728;50.448;18.824;2023-12-20T07:41:49;39.74;35.98;59.56;;
67398;Laerm;57728;50.448;18.824;2023-12-20T07:43:50;39.74;35.84;58.51;;
67398;Laerm;57728;50.448;18.824;2023-12-20T07:45:52;39.27;35.64;58.54;;
67398;Laerm;57728;50.448;18.824;2023-12-20T07:47:54;39.16;35.67;57.83;;
67398;Laerm;57728;50.448;18.824;2023-12-20T07:49:55;38.46;35.65;53.50;;
67398;Laerm;57728;50.448;18.824;2023-12-20T07:51:57;39.20;35.22;53.32;;
67398;Laerm;57728;50.448;18.824;2023-12-20T07:53:58;38.91;35.59;53.50;;
67398;Laerm;57728;50.448;18.824;2023-12-20T07:55:59;38.53;35.52;58.91;;
67398;Laerm;57728;50.448;18.824;2023-12-20T07:58:01;38.57;35.44;58.27;;
67398;Laerm;57728;50.448;18.824;2023-12-20T08:00:04;38.51;35.44;59.08;;
67398;Laerm;57728;50.448;18.824;2023-12-20T08:02:06;38.89;35.28;50.73;;
67398;Laerm;57728;50.448;18.824;2023-12-20T08:04:08;38.59;35.47;59.65;;
67398;Laerm;57728;50.448;18.824;2023-12-20T08:06:09;38.96;35.49;57.45;;
67398;Laerm;57728;50.448;18.824;2023-12-20T08:08:10;38.70;35.32;53.34;;
67398;Laerm;57728;50.448;18.824;2023-12-20T08:10:12;38.71;35.48;59.72;;
67398;Laerm;57728;50.448;18.824;2023-12-20T08:12:15;38.90;35.54;46.71;;
67398;Laerm;57728;50.448;18.824;2023-12-20T08:14:17;39.30;35.79;52.62;;
67398;Laerm;57728;50.448;18.824;2023-12-20T08:16:22;39.18;35.80;61.15;;
67398;Laerm;57728;50.448;18.824;2023-12-20T08:18:23;38.95;35.45;57.81;;
67398;Laerm;57728;50.448;18.824;2023-12-20T08:20:24;38.96;35.58;52.36;;
67398;Laerm;57728;50.448;18.824;2023-12-20T08:22:26;38.83;35.45;55.70;;
67398;Laerm;57728;50.448;18.824;2023-12-20T08:24:27;38.82;35.48;55.09;;
67398;Laerm;57728;50.448;18.824;2023-12-20T08:26:28;39.23;35.94;62.96;;
67398;Laerm;57728;50.448;18.824;2023-12-20T08:28:30;39.15;35.80;55.19;;
67398;Laerm;57728;50.448;18.824;2023-12-20T08:30:32;39.07;35.69;54.29;;
67398;Laerm;57728;50.448;18.824;2023-12-20T08:32:34;38.65;35.35;55.89;;
67398;Laerm;57728;50.448;18.824;2023-12-20T08:34:37;38.73;35.47;53.71;;
67398;Laerm;57728;50.448;18.824;2023-12-20T08:36:39;38.72;35.53;54.39;;
67398;Laerm;57728;50.448;18.824;2023-12-20T08:38:40;39.06;35.58;62.15;;
67398;Laerm;57728;50.448;18.824;2023-12-20T08:40:42;39.04;35.54;55.00;;
67398;Laerm;57728;50.448;18.824;2023-12-20T08:42:43;39.13;35.57;57.42;;
67398;Laerm;57728;50.448;18.824;2023-12-20T08:44:44;39.16;35.81;52.22;;
67398;Laerm;57728;50.448;18.824;2023-12-20T08:46:46;39.31;35.54;59.66;;
67398;Laerm;57728;50.448;18.824;2023-12-20T08:48:47;39.43;35.94;56.11;;
67398;Laerm;57728;50.448;18.824;2023-12-20T08:50:49;38.32;35.27;53.80;;
67398;Laerm;57728;50.448;18.824;2023-12-20T08:52:53;38.58;35.48;54.99;;
67398;Laerm;57728;50.448;18.824;2023-12-20T08:54:54;39.13;35.21;59.64;;
67398;Laerm;57728;50.448;18.824;2023-12-20T08:56:56;39.31;35.43;55.05;;
67398;Laerm;57728;50.448;18.824;2023-12-20T08:58:59;38.79;35.09;56.46;;
67398;Laerm;57728;50.448;18.824;2023-12-20T09:01:00;39.34;35.63;62.69;;
67398;Laerm;57728;50.448;18.824;2023-12-20T09:03:02;39.29;35.55;55.40;;
67398;Laerm;57728;50.448;18.824;2023-12-20T09:05:04;39.21;35.51;60.72;;
67398;Laerm;57728;50.448;18.824;2023-12-20T09:07:06;39.20;35.67;53.11;;
67398;Laerm;57728;50.448;18.824;2023-12-20T09:09:08;40.02;35.65;56.08;;
67398;Laerm;57728;50.448;18.824;2023-12-20T09:11:15;40.04;35.53;64.11;;
67398;Laerm;57728;50.448;18.824;2023-12-20T09:13:16;39.16;35.01;61.54;;
67398;Laerm;57728;50.448;18.824;2023-12-20T09:15:17;38.92;35.59;58.09;;
67398;Laerm;57728;50.448;18.824;2023-12-20T09:17:19;38.97;35.35;55.55;;
67398;Laerm;57728;50.448;18.824;2023-12-20T09:19:22;39.16;35.67;51.40;;
67398;Laerm;57728;50.448;18.824;2023-12-20T09:21:23;38.81;35.01;56.87;;
67398;Laerm;57728;50.448;18.824;2023-12-20T09:23:25;39.01;35.47;51.93;;
67398;Laerm;57728;50.448;18.824;2023-12-20T09:25:26;39.08;35.63;51.80;;
67398;Laerm;57728;50.448;18.824;2023-12-20T09:27:31;39.14;35.51;51.17;;
67398;Laerm;57728;50.448;18.824;2023-12-20T09:29:33;39.20;35.51;62.68;;
67398;Laerm;57728;50.448;18.824;2023-12-20T09:31:36;38.91;35.41;51.66;;
67398;Laerm;57728;50.448;18.824;2023-12-20T09:33:37;39.30;35.69;55.65;;
67398;Laerm;57728;50.448;18.824;2023-12-20T09:35:39;39.90;35.66;66.62;;
67398;Laerm;57728;50.448;18.824;2023-12-20T09:37:41;39.33;35.93;54.49;;
67398;Laerm;57728;50.448;18.824;2023-12-20T09:39:45;38.98;35.70;49.45;;
67398;Laerm;57728;50.448;18.824;2023-12-20T09:44:03;39.52;36.00;60.72;;
67398;Laerm;57728;50.448;18.824;2023-12-20T09:46:06;39.13;35.61;54.92;;
67398;Laerm;57728;50.448;18.824;2023-12-20T09:48:11;39.17;35.84;57.47;;
67398;Laerm;57728;50.448;18.824;2023-12-20T09:50:13;39.61;35.51;59.17;;
67398;Laerm;57728;50.448;18.824;2023-12-20T09:52:16;39.35;35.79;53.07;;
67398;Laerm;57728;50.448;18.824;2023-12-20T09:54:21;39.58;36.15;55.44;;
67398;Laerm;57728;50.448;18.824;2023-12-20T09:56:25;39.32;36.00;56.30;;
67398;Laerm;57728;50.448;18.824;2023-12-20T09:58:26;39.49;35.79;55.66;;
67398;Laerm;57728;50.448;18.824;2023-12-20T10:00:28;39.65;35.76;54.28;;
67398;Laerm;57728;50.448;18.824;2023-12-20T10:02:31;39.61;35.56;65.75;;
67398;Laerm;57728;50.448;18.824;2023-12-20T10:04:35;40.26;35.40;65.42;;
67398;Laerm;57728;50.448;18.824;2023-12-20T10:06:41;39.36;35.54;60.14;;
67398;Laerm;57728;50.448;18.824;2023-12-20T10:08:42;40.96;35.70;70.38;;
67398;Laerm;57728;50.448;18.824;2023-12-20T10:10:43;39.24;35.53;54.41;;
67398;Laerm;57728;50.448;18.824;2023-12-20T10:13:06;39.18;35.53;57.45;;
67398;Laerm;57728;50.448;18.824;2023-12-20T10:15:08;39.11;35.76;54.07;;
67398;Laerm;57728;50.448;18.824;2023-12-20T10:17:11;39.17;35.51;58.96;;
67398;Laerm;57728;50.448;18.824;2023-12-20T10:19:17;38.81;35.56;50.57;;
67398;Laerm;57728;50.448;18.824;2023-12-20T10:21:19;39.69;35.73;60.99;;
67398;Laerm;57728;50.448;18.824;2023-12-20T10:23:20;39.32;35.35;57.36;;
67398;Laerm;57728;50.448;18.824;2023-12-20T10:25:23;40.19;35.72;66.62;;
67398;Laerm;57728;50.448;18.824;2023-12-20T10:27:24;38.92;35.60;53.07;;
67398;Laerm;57728;50.448;18.824;2023-12-20T10:29:26;39.20;35.56;59.05;;
67398;Laerm;57728;50.448;18.824;2023-12-20T10:31:32;39.09;35.48;57.57;;
67398;Laerm;57728;50.448;18.824;2023-12-20T10:33:34;39.25;35.38;53.21;;
67398;Laerm;57728;50.448;18.824;2023-12-20T10:35:37;39.04;35.69;51.01;;
67398;Laerm;57728;50.448;18.824;2023-12-20T10:37:39;39.44;35.78;52.47;;
67398;Laerm;57728;50.448;18.824;2023-12-20T10:39:42;39.69;35.73;54.34;;
67398;Laerm;57728;50.448;18.824;2023-12-20T10:41:46;40.61;35.60;61.97;;
67398;Laerm;57728;50.448;18.824;2023-12-20T10:43:49;39.55;35.89;57.67;;
67398;Laerm;57728;50.448;18.824;2023-12-20T10:45:51;39.08;35.71;54.31;;
67398;Laerm;57728;50.448;18.824;2023-12-20T10:47:53;39.57;35.46;66.77;;
67398;Laerm;57728;50.448;18.824;2023-12-20T10:49:59;39.60;35.52;61.31;;
67398;Laerm;57728;50.448;18.824;2023-12-20T10:52:05;38.78;35.57;52.77;;
67398;Laerm;57728;50.448;18.824;2023-12-20T10:54:07;38.85;35.64;46.53;;
67398;Laerm;57728;50.448;18.824;2023-12-20T10:56:17;38.76;35.22;54.16;;
67398;Laerm;57728;50.448;18.824;2023-12-20T10:58:21;38.66;35.60;48.00;;
67398;Laerm;57728;50.448;18.824;2023-12-20T11:00:25;38.71;35.54;50.35;;
67398;Laerm;57728;50.448;18.824;2023-12-20T11:02:33;38.68;35.63;52.65;;
67398;Laerm;57728;50.448;18.824;2023-12-20T11:05:33;39.17;35.62;65.66;;
67398;Laerm;57728;50.448;18.824;2023-12-20T11:07:50;38.75;35.37;51.52;;
67398;Laerm;57728;50.448;18.824;2023-12-20T11:10:23;38.77;35.55;57.42;;
67398;Laerm;57728;50.448;18.824;2023-12-20T11:12:46;38.80;35.85;52.12;;
67398;Laerm;57728;50.448;18.824;2023-12-20T11:14:54;38.89;35.46;50.64;;
67398;Laerm;57728;50.448;18.824;2023-12-20T11:17:11;39.20;35.57;65.68;;